createdAt,value
2023-05-20T00:02:04.460Z,80.04
2023-05-20T00:05:06.565Z,80.17
2023-05-20T00:08:08.220Z,79.92
2023-05-20T00:11:09.892Z,80.00
2023-05-20T00:14:11.532Z,80.00
2023-05-20T00:17:13.185Z,80.13
2023-05-20T00:20:15.124Z,80.04
2023-05-20T00:23:16.781Z,80.11
2023-05-20T00:26:20.072Z,80.19
2023-05-20T00:29:21.965Z,80.16
2023-05-20T00:32:24.999Z,80.09
2023-05-20T00:35:26.936Z,80.25
2023-05-20T00:38:28.510Z,80.27
2023-05-20T00:41:30.394Z,80.32
2023-05-20T00:44:32.070Z,80.27
2023-05-20T00:47:35.711Z,80.22
2023-05-20T00:50:37.360Z,80.35
2023-05-20T00:53:39.018Z,80.39
2023-05-20T00:56:40.745Z,80.51
2023-05-20T00:59:44.669Z,80.53
2023-05-20T01:02:46.951Z,80.48
2023-05-20T01:05:48.685Z,80.58
2023-05-20T01:08:50.451Z,80.25
2023-05-20T01:12:20.596Z,80.40
2023-05-20T01:15:25.241Z,80.50
2023-05-20T01:18:28.253Z,80.41
2023-05-20T01:21:33.970Z,80.62
2023-05-20T01:24:35.567Z,80.43
2023-05-20T01:27:37.315Z,80.64
2023-05-20T01:30:44.086Z,80.52
2023-05-20T01:33:47.733Z,80.57
2023-05-20T01:36:49.794Z,80.61
2023-05-20T01:39:52.244Z,80.62
2023-05-20T01:42:55.304Z,80.61
2023-05-20T01:45:57.042Z,80.52
2023-05-20T01:48:58.681Z,80.60
2023-05-20T01:52:00.663Z,80.49
2023-05-20T01:55:02.310Z,80.63
2023-05-20T01:58:04.025Z,80.56
2023-05-20T02:01:05.890Z,80.68
2023-05-20T02:04:07.630Z,80.68
2023-05-20T02:07:09.386Z,80.71
2023-05-20T02:10:11.366Z,80.72
2023-05-20T02:13:13.036Z,80.71
2023-05-20T02:16:14.737Z,80.90
2023-05-20T02:19:16.390Z,80.83
2023-05-20T02:22:18.379Z,80.99
2023-05-20T02:25:20.087Z,80.81
2023-05-20T02:28:22.074Z,80.98
2023-05-20T02:31:23.740Z,81.12
2023-05-20T02:34:25.397Z,81.02
2023-05-20T02:37:27.117Z,81.01
2023-05-20T02:40:28.790Z,81.18
2023-05-20T02:43:31.331Z,81.08
2023-05-20T02:46:34.724Z,81.19
2023-05-20T02:49:36.481Z,81.09
2023-05-20T02:52:38.090Z,81.02
2023-05-20T02:55:40.892Z,81.09
2023-05-20T02:58:42.554Z,81.16
2023-05-20T03:01:44.214Z,81.02
2023-05-20T03:04:46.165Z,81.14
2023-05-20T03:07:47.773Z,80.98
2023-05-20T03:10:49.464Z,81.14
2023-05-20T03:13:51.159Z,81.16
2023-05-20T03:16:53.809Z,81.21
2023-05-20T03:19:55.678Z,81.18
2023-05-20T03:22:57.388Z,81.16
2023-05-20T03:25:59.215Z,81.09
2023-05-20T03:29:00.777Z,81.25
2023-05-20T03:32:02.512Z,81.11
2023-05-20T03:35:04.399Z,81.29
2023-05-20T03:38:06.011Z,81.23
2023-05-20T03:41:07.617Z,81.17
2023-05-20T03:44:09.245Z,81.36
2023-05-20T03:47:10.967Z,81.22
2023-05-20T03:50:12.770Z,81.24
2023-05-20T03:53:14.492Z,81.27
2023-05-20T03:56:16.120Z,81.13
2023-05-20T03:59:19.109Z,81.20
2023-05-20T04:02:20.857Z,81.25
2023-05-20T04:05:23.684Z,81.27
2023-05-20T04:08:25.355Z,81.10
2023-05-20T04:11:27.036Z,81.32
2023-05-20T04:14:28.801Z,81.23
2023-05-20T04:17:31.558Z,81.35
2023-05-20T04:20:33.221Z,81.26
2023-05-20T04:23:34.881Z,81.25
2023-05-20T04:26:36.617Z,81.27
2023-05-20T04:29:38.250Z,81.25
2023-05-20T04:32:39.925Z,81.17
2023-05-20T04:35:41.894Z,81.34
2023-05-20T04:38:43.570Z,81.32
2023-05-20T04:41:45.340Z,81.24
2023-05-20T04:44:47.384Z,81.05
2023-05-20T04:47:49.031Z,81.24
2023-05-20T04:50:50.765Z,81.10
2023-05-20T04:53:52.451Z,81.16
2023-05-20T04:56:54.021Z,81.32
2023-05-20T04:59:55.700Z,81.19
2023-05-20T05:02:57.289Z,81.17
2023-05-20T05:05:59.300Z,81.33
2023-05-20T05:09:00.907Z,81.38
2023-05-20T05:12:02.557Z,81.27
2023-05-20T05:15:04.664Z,81.27
2023-05-20T05:18:06.332Z,81.18
2023-05-20T05:21:07.935Z,81.15
2023-05-20T05:24:09.530Z,81.36
2023-05-20T05:27:11.116Z,81.27
2023-05-20T05:30:12.835Z,81.36
2023-05-20T05:33:15.509Z,81.35
2023-05-20T05:36:17.575Z,81.54
2023-05-20T05:39:19.281Z,81.44
2023-05-20T05:42:20.927Z,81.65
2023-05-20T05:45:22.508Z,81.26
2023-05-20T05:48:24.197Z,81.15
2023-05-20T05:51:27.297Z,81.05
2023-05-20T05:54:28.866Z,81.18
2023-05-20T05:57:30.726Z,81.25
2023-05-20T06:00:32.396Z,81.09
2023-05-20T06:03:34.147Z,81.17
2023-05-20T06:06:35.879Z,81.21
2023-05-20T06:09:38.917Z,81.11
2023-05-20T06:12:40.732Z,81.18
2023-05-20T06:15:42.293Z,81.19
2023-05-20T06:18:45.932Z,81.15
2023-05-20T06:21:47.517Z,81.19
2023-05-20T06:24:49.060Z,81.41
2023-05-20T06:27:51.053Z,81.25
2023-05-20T06:30:54.593Z,81.02
2023-05-20T06:33:56.452Z,81.17
2023-05-20T06:36:58.781Z,81.28
2023-05-20T06:40:00.518Z,81.32
2023-05-20T06:43:02.155Z,81.26
2023-05-20T06:46:03.772Z,81.19
2023-05-20T06:49:05.565Z,81.28
2023-05-20T06:52:07.270Z,81.23
2023-05-20T06:55:09.661Z,81.29
2023-05-20T06:58:11.344Z,81.29
2023-05-20T07:01:13.246Z,81.50
2023-05-20T07:04:15.351Z,81.45
2023-05-20T07:07:17.421Z,81.35
2023-05-20T07:10:19.244Z,81.29
2023-05-20T07:13:20.877Z,81.16
2023-05-20T07:16:22.532Z,81.11
2023-05-20T07:19:24.190Z,81.16
2023-05-20T07:22:26.433Z,81.11
2023-05-20T07:25:28.048Z,81.13
2023-05-20T07:28:29.693Z,81.12
2023-05-20T07:31:31.406Z,81.13
2023-05-20T07:34:32.995Z,81.04
2023-05-20T07:37:34.604Z,81.10
2023-05-20T07:40:36.476Z,81.09
2023-05-20T07:43:38.094Z,80.87
2023-05-20T07:46:39.842Z,80.94
2023-05-20T07:49:41.441Z,81.00
2023-05-20T07:52:55.331Z,81.03
2023-05-20T07:55:58.309Z,80.96
2023-05-20T07:59:00.436Z,81.08
2023-05-20T08:02:02.424Z,81.07
2023-05-20T08:05:04.455Z,81.21
2023-05-20T08:08:06.194Z,81.41
2023-05-20T08:11:08.104Z,81.47
2023-05-20T08:14:09.775Z,81.29
2023-05-20T08:17:11.423Z,81.22
2023-05-20T08:20:13.702Z,81.10
2023-05-20T08:23:15.306Z,80.88
2023-05-20T08:26:16.944Z,80.86
2023-05-20T08:29:18.688Z,80.85
2023-05-20T08:32:20.433Z,80.84
2023-05-20T08:35:24.725Z,80.81
2023-05-20T08:38:26.703Z,80.71
2023-05-20T08:41:48.668Z,80.42
2023-05-20T08:44:52.701Z,80.47
2023-05-20T08:47:54.755Z,80.32
2023-05-20T08:50:58.045Z,80.43
2023-05-20T08:54:00.193Z,80.56
2023-05-20T08:57:01.759Z,80.51
2023-05-20T09:00:03.799Z,80.48
2023-05-20T09:03:05.901Z,80.21
2023-05-20T09:06:09.207Z,80.25
2023-05-20T09:09:14.719Z,79.92
2023-05-20T09:12:16.644Z,79.92
2023-05-20T09:15:18.365Z,79.83
2023-05-20T09:18:20.055Z,79.22
2023-05-20T09:21:26.824Z,79.03
2023-05-20T09:24:28.525Z,79.69
2023-05-20T09:27:30.159Z,78.62
2023-05-20T09:30:32.346Z,77.77
2023-05-20T09:33:33.922Z,77.78
2023-05-20T09:36:35.764Z,77.84
2023-05-20T09:39:51.734Z,77.26
2023-05-20T09:43:03.043Z,77.67
2023-05-20T09:46:05.243Z,76.85
2023-05-20T09:49:07.091Z,76.19
2023-05-20T09:52:08.866Z,76.00
2023-05-20T09:55:10.983Z,76.72
2023-05-20T09:58:16.043Z,76.51
2023-05-20T10:01:18.188Z,76.50
2023-05-20T10:04:20.496Z,75.43
2023-05-20T10:07:41.838Z,75.21
2023-05-20T10:11:09.758Z,75.86
2023-05-20T10:14:39.659Z,75.70
2023-05-20T10:18:14.941Z,74.80
2023-05-20T10:21:18.323Z,74.46
2023-05-20T10:24:35.931Z,74.24
2023-05-20T10:27:45.164Z,75.38
2023-05-20T10:30:50.344Z,75.20
2023-05-20T10:33:53.359Z,74.95
2023-05-20T10:36:54.973Z,74.49
2023-05-20T10:40:11.291Z,74.21
2023-05-20T10:43:18.078Z,72.42
2023-05-20T10:46:32.606Z,72.98
2023-05-20T10:49:41.951Z,72.97
2023-05-20T10:52:43.626Z,73.43
2023-05-20T10:55:49.687Z,72.40
2023-05-20T10:58:53.076Z,71.32
2023-05-20T11:01:54.819Z,69.77
2023-05-20T11:04:57.126Z,71.48
2023-05-20T11:08:06.051Z,71.39
2023-05-20T11:11:30.434Z,71.69
2023-05-20T11:14:32.216Z,71.69
2023-05-20T11:17:33.909Z,71.99
2023-05-20T11:20:36.161Z,70.81
2023-05-20T11:23:40.499Z,72.22
2023-05-20T11:26:42.481Z,72.34
2023-05-20T11:29:44.167Z,70.26
2023-05-20T11:33:04.365Z,66.37
2023-05-20T11:36:08.744Z,67.18
2023-05-20T11:39:18.275Z,68.17
2023-05-20T11:42:21.590Z,67.47
2023-05-20T11:45:24.007Z,66.36
2023-05-20T11:48:25.754Z,66.21
2023-05-20T11:51:28.142Z,66.19
2023-05-20T11:54:29.729Z,66.35
2023-05-20T11:57:31.653Z,66.44
2023-05-20T12:00:46.747Z,66.01
2023-05-20T12:03:52.632Z,65.72
2023-05-20T12:06:54.499Z,63.71
2023-05-20T12:09:56.167Z,64.12
2023-05-20T12:12:58.644Z,61.19
2023-05-20T12:16:00.331Z,62.38
2023-05-20T12:19:02.085Z,63.31
2023-05-20T12:22:03.780Z,62.19
2023-05-20T12:25:05.965Z,58.77
2023-05-20T12:28:07.599Z,60.16
2023-05-20T12:31:09.249Z,61.77
2023-05-20T12:34:10.813Z,59.95
2023-05-20T12:37:12.602Z,58.07
2023-05-20T12:40:14.370Z,60.20
2023-05-20T12:43:16.110Z,59.05
2023-05-20T12:46:18.506Z,59.39
2023-05-20T12:49:20.105Z,60.76
2023-05-20T12:52:22.776Z,58.99
2023-05-20T12:55:24.967Z,56.62
2023-05-20T12:58:26.650Z,58.62
2023-05-20T13:01:28.614Z,58.53
2023-05-20T13:04:30.224Z,57.72
2023-05-20T13:07:32.392Z,56.96
2023-05-20T13:10:34.358Z,53.94
2023-05-20T13:13:36.268Z,54.82
2023-05-20T13:16:38.306Z,56.12
2023-05-20T13:19:40.302Z,56.05
2023-05-20T13:22:41.937Z,55.23
2023-05-20T13:25:43.466Z,55.19
2023-05-20T13:28:45.011Z,53.82
2023-05-20T13:31:47.489Z,55.31
2023-05-20T13:34:49.120Z,55.40
2023-05-20T13:37:50.901Z,55.37
2023-05-20T13:40:52.614Z,55.47
2023-05-20T13:43:54.148Z,52.95
2023-05-20T13:46:56.276Z,53.43
2023-05-20T13:49:58.013Z,52.59
2023-05-20T13:53:00.318Z,52.28
2023-05-20T13:56:02.159Z,54.13
2023-05-20T13:59:03.717Z,55.34
2023-05-20T14:02:05.515Z,55.21
2023-05-20T14:05:08.113Z,52.73
2023-05-20T14:08:09.725Z,50.49
2023-05-20T14:11:11.873Z,52.87
2023-05-20T14:14:13.562Z,49.72
2023-05-20T14:17:15.354Z,48.73
2023-05-20T14:20:17.198Z,51.68
2023-05-20T14:23:18.797Z,51.13
2023-05-20T14:26:20.370Z,50.27
2023-05-20T14:29:22.140Z,51.61
2023-05-20T14:32:23.991Z,52.51
2023-05-20T14:35:25.641Z,50.27
2023-05-20T14:38:28.811Z,52.14
2023-05-20T14:41:30.491Z,50.10
2023-05-20T14:44:32.188Z,50.50
2023-05-20T14:47:34.083Z,51.72
2023-05-20T14:50:36.063Z,52.71
2023-05-20T14:53:38.073Z,49.06
2023-05-20T14:56:40.197Z,51.13
2023-05-20T14:59:42.582Z,51.20
2023-05-20T15:02:44.227Z,51.58
2023-05-20T15:05:45.943Z,52.45
2023-05-20T15:08:47.529Z,52.17
2023-05-20T15:11:49.227Z,52.18
2023-05-20T15:14:50.866Z,53.06
2023-05-20T15:17:52.508Z,52.94
2023-05-20T15:20:54.168Z,52.26
2023-05-20T15:23:55.742Z,53.08
2023-05-20T15:26:57.369Z,53.15
2023-05-20T15:29:59.311Z,53.22
2023-05-20T15:33:01.009Z,49.64
2023-05-20T15:36:02.725Z,48.12
2023-05-20T15:39:04.374Z,50.75
2023-05-20T15:42:05.992Z,49.25
2023-05-20T15:45:09.511Z,49.01
2023-05-20T15:48:11.135Z,51.39
2023-05-20T15:51:12.864Z,50.80
2023-05-20T15:54:14.432Z,51.74
2023-05-20T15:57:16.033Z,50.16
2023-05-20T16:00:20.707Z,51.10
2023-05-20T16:03:22.403Z,51.85
2023-05-20T16:06:24.230Z,51.78
2023-05-20T16:09:25.857Z,49.78
2023-05-20T16:12:27.661Z,50.10
2023-05-20T16:15:29.382Z,51.77
2023-05-20T16:18:31.193Z,51.43
2023-05-20T16:21:32.761Z,51.03
2023-05-20T16:24:34.345Z,51.37
2023-05-20T16:27:35.909Z,51.14
2023-05-20T16:30:37.540Z,51.41
2023-05-20T16:33:39.178Z,50.89
2023-05-20T16:36:40.800Z,51.93
2023-05-20T16:39:42.457Z,51.37
2023-05-20T16:42:44.121Z,51.98
2023-05-20T16:45:45.709Z,51.93
2023-05-20T16:48:47.567Z,52.39
2023-05-20T16:51:49.254Z,51.20
2023-05-20T16:54:50.876Z,51.00
2023-05-20T16:57:52.477Z,49.91
2023-05-20T17:00:54.202Z,50.46
2023-05-20T17:03:55.876Z,50.35
2023-05-20T17:06:57.579Z,50.38
2023-05-20T17:09:59.214Z,49.83
2023-05-20T17:13:00.912Z,50.35
2023-05-20T17:16:02.524Z,52.09
2023-05-20T17:19:04.163Z,52.41
2023-05-20T17:22:05.839Z,52.90
2023-05-20T17:25:07.883Z,53.58
2023-05-20T17:28:09.500Z,53.81
2023-05-20T17:31:11.226Z,54.48
2023-05-20T17:34:12.933Z,55.00
2023-05-20T17:37:14.534Z,55.17
2023-05-20T17:40:16.120Z,55.33
2023-05-20T17:43:17.830Z,55.85
2023-05-20T17:46:19.466Z,56.19
2023-05-20T17:49:21.125Z,56.13
2023-05-20T17:52:22.832Z,56.56
2023-05-20T17:55:24.679Z,56.88
2023-05-20T17:58:26.480Z,57.23
2023-05-20T18:01:28.221Z,57.33
2023-05-20T18:04:30.038Z,57.54
2023-05-20T18:07:32.031Z,58.13
2023-05-20T18:10:33.937Z,58.66
2023-05-20T18:13:36.118Z,58.85
2023-05-20T18:16:37.980Z,59.02
2023-05-20T18:19:39.693Z,59.42
2023-05-20T18:22:41.606Z,59.56
2023-05-20T18:25:43.537Z,59.55
2023-05-20T18:28:45.216Z,59.97
2023-05-20T18:31:47.004Z,60.15
2023-05-20T18:34:48.608Z,60.72
2023-05-20T18:37:50.652Z,61.09
2023-05-20T18:40:52.373Z,61.55
2023-05-20T18:43:54.077Z,61.70
2023-05-20T18:46:55.750Z,61.91
2023-05-20T18:50:03.129Z,62.13
2023-05-20T18:53:05.221Z,62.05
2023-05-20T18:56:07.200Z,62.13
2023-05-20T18:59:08.810Z,62.33
2023-05-20T19:02:10.909Z,62.34
2023-05-20T19:05:12.820Z,62.84
2023-05-20T19:08:14.451Z,63.12
2023-05-20T19:11:16.290Z,63.52
2023-05-20T19:14:18.132Z,63.51
2023-05-20T19:17:21.066Z,63.77
2023-05-20T19:20:23.509Z,64.08
2023-05-20T19:23:25.174Z,64.30
2023-05-20T19:26:26.888Z,64.46
2023-05-20T19:29:28.829Z,64.55
2023-05-20T19:32:30.612Z,64.82
2023-05-20T19:35:33.335Z,65.30
2023-05-20T19:38:34.998Z,65.28
2023-05-20T19:41:37.131Z,65.57
2023-05-20T19:44:38.739Z,65.53
2023-05-20T19:47:43.752Z,65.62
2023-05-20T19:50:45.384Z,65.44
2023-05-20T19:53:46.984Z,65.91
2023-05-20T19:56:48.594Z,65.81
2023-05-20T19:59:52.289Z,65.79
2023-05-20T20:02:55.316Z,65.75
2023-05-20T20:05:57.217Z,65.74
2023-05-20T20:08:59.350Z,66.01
2023-05-20T20:12:01.121Z,66.28
2023-05-20T20:15:03.776Z,66.44
2023-05-20T20:18:05.470Z,66.56
2023-05-20T20:21:07.233Z,66.83
2023-05-20T20:24:09.101Z,66.77
2023-05-20T20:27:10.753Z,66.88
2023-05-20T20:30:13.671Z,66.96
2023-05-20T20:33:15.517Z,67.11
2023-05-20T20:36:17.257Z,67.13
2023-05-20T20:39:18.986Z,67.18
2023-05-20T20:42:21.032Z,67.46
2023-05-20T20:45:22.850Z,67.85
2023-05-20T20:48:24.495Z,67.95
2023-05-20T20:51:26.153Z,68.07
2023-05-20T20:54:28.481Z,68.16
2023-05-20T20:57:30.095Z,68.07
2023-05-20T21:00:31.723Z,68.42
2023-05-20T21:03:33.471Z,68.26
2023-05-20T21:06:35.196Z,68.46
2023-05-20T21:09:36.858Z,68.73
2023-05-20T21:12:38.878Z,69.00
2023-05-20T21:15:40.510Z,69.20
2023-05-20T21:18:42.141Z,69.21
2023-05-20T21:21:43.792Z,69.24
2023-05-20T21:24:45.955Z,69.37
2023-05-20T21:27:47.589Z,69.17
2023-05-20T21:30:49.408Z,69.47
2023-05-20T21:33:51.315Z,69.88
2023-05-20T21:36:52.902Z,69.96
2023-05-20T21:39:54.622Z,70.07
2023-05-20T21:42:56.249Z,70.22
2023-05-20T21:45:57.939Z,70.34
2023-05-20T21:48:59.569Z,70.54
2023-05-20T21:52:01.186Z,70.76
2023-05-20T21:55:02.823Z,70.94
2023-05-20T21:58:04.714Z,70.79
2023-05-20T22:01:06.763Z,70.62
2023-05-20T22:04:08.397Z,70.92
2023-05-20T22:07:10.470Z,70.72
2023-05-20T22:10:12.372Z,70.87
2023-05-20T22:13:14.048Z,71.01
2023-05-20T22:16:15.681Z,71.12
2023-05-20T22:19:17.768Z,71.17
2023-05-20T22:22:19.584Z,71.25
2023-05-20T22:25:21.136Z,71.30
2023-05-20T22:28:22.811Z,71.41
2023-05-20T22:31:24.521Z,71.43
2023-05-20T22:34:28.632Z,71.70
2023-05-20T22:37:31.454Z,71.67
2023-05-20T22:40:33.114Z,71.59
2023-05-20T22:43:34.781Z,72.05
2023-05-20T22:46:36.520Z,72.72
2023-05-20T22:49:38.458Z,72.94
2023-05-20T22:52:43.692Z,72.61
2023-05-20T22:55:45.628Z,72.40
2023-05-20T22:58:47.593Z,72.83
2023-05-20T23:01:49.889Z,72.84
2023-05-20T23:04:51.952Z,72.71
2023-05-20T23:07:53.764Z,73.12
2023-05-20T23:10:55.400Z,73.35
2023-05-20T23:13:57.112Z,73.38
2023-05-20T23:16:58.806Z,73.58
2023-05-20T23:20:00.496Z,73.68
2023-05-20T23:23:10.525Z,73.81
2023-05-20T23:26:13.482Z,73.77
2023-05-20T23:29:15.602Z,73.91
2023-05-20T23:32:17.196Z,73.80
2023-05-20T23:35:19.618Z,73.84
2023-05-20T23:38:21.328Z,73.88
2023-05-20T23:41:23.076Z,73.89
2023-05-20T23:44:24.741Z,73.97
2023-05-20T23:47:26.914Z,73.98
2023-05-20T23:50:28.611Z,74.01
2023-05-20T23:53:30.318Z,74.01
2023-05-20T23:56:31.893Z,74.13
2023-05-20T23:59:33.643Z,74.09
